• Join FlightAware (Why Join?)
  • Login
  • US Flag 
06:47PM EDT


 

Airport Tracker/Info


-or-


 

Live Flight TrackerFlight Track Log ✈ RPA3228 ✈ 02-Nov-2013 ✈ KDCA - KBUF

Flight Track Log - Related Links

Times and Time Zones

All times are in EDT time to prevent confusion due to time zone crossing. See the RPA3228 flight status page for this flight to view local times or setup timezone preferences in your user account.

Time Position Orientation Groundspeed Altitude Reporting Facility
EDT Latitude Longitude Course Direction KTS MPH feet Rate Location/Type
10:32AM 38.8833 -77.0667 North 169 194 2,300  Level Potomac TRACON
10:33AM 38.9333 -77.1167 322° Northwest 228 262 4,700 2,760 Climbing Potomac TRACON
10:34AM 39.2243 -77.1831 339° North  Level Estimated
10:35AM 39.3484 -77.2319 339° North  Level Estimated
10:35AM 39.0061 -77.2611 303° West 250 288 10,900  Level Washington Center
10:36AM 39.4724 -77.2809 North  Level Estimated
10:36AM 39.0214 -77.3603 281° West 258 297 13,100  Level Washington Center
10:37AM 39.5965 -77.3301 North  Level Estimated
10:37AM 39.0594 -77.4494 299° West 277 319 16,300  Level Washington Center
10:38AM 39.1211 -77.5206 318° Northwest 289 333 17,000 1,260 Climbing Washington Center
10:41AM 39.4069 -77.4892 North 403 464 20,700 1,620 Climbing New York Center
10:42AM 39.5269 -77.4733 North 416 479 22,700 1,860 Climbing New York Center
10:43AM 39.6528 -77.4611 North 435 501 24,500 1,680 Climbing New York Center
10:44AM 39.7700 -77.4858 351° North 435 501 26,100 1,680 Climbing New York Center
10:45AM 39.8847 -77.5267 345° North 430 495 27,900 900 Climbing New York Center
10:46AM 40.0011 -77.5678 345° North 430 495 28,000  Climbing New York Center
10:47AM 40.1239 -77.6094 345° North 430 495 28,000  Level New York Center
10:48AM 40.2464 -77.6514 345° North 440 506 28,000  Level New York Center
10:49AM 40.3628 -77.6931 345° North 440 506 28,000  Level New York Center
10:50AM 40.4814 -77.7350 345° North 445 512 28,000  Level New York Center
10:51AM 40.5978 -77.7769 345° North 445 512 28,000  Level New York Center
10:52AM 40.7181 -77.8219 344° North 445 512 28,000  Level New York Center
10:53AM 40.8383 -77.8647 345° North 445 512 28,000  Level New York Center
10:54AM 40.9786 -77.9153 345° North 445 512 28,000  Level Cleveland Center
10:55AM 41.0950 -77.9589 344° North 441 507 28,000  Level Cleveland Center
10:56AM 41.2108 -78.0008 345° North 438 504 28,000  Level Cleveland Center
10:57AM 41.3267 -78.0425 345° North 437 503 28,000 -300 Level Cleveland Center
10:58AM 41.4650 -78.0942 344° North 436 502 27,500 -840 Descending Cleveland Center
10:59AM 41.5794 -78.1367 344° North 432 497 26,300 -1,260 Descending Cleveland Center
11:00AM 41.6908 -78.1783 344° North 423 487 24,900 -1,500 Descending Cleveland Center
11:01AM 41.7950 -78.2167 345° North 398 458 23,300 -1,800 Descending Cleveland Center
11:02AM 41.8944 -78.2522 345° North 380 437 21,300 -2,100 Descending Cleveland Center
11:03AM 42.0092 -78.2956 344° North 362 417 19,000 -2,100 Descending Cleveland Center
11:04AM 42.1006 -78.3306 344° North 348 400 17,000 -1,860 Descending Cleveland Center
11:05AM 42.1864 -78.3619 345° North 335 386 15,300 -1,680 Descending Cleveland Center
11:06AM 42.2719 -78.3939 345° North 321 369 13,600 -1,680 Descending Cleveland Center
11:07AM 42.3531 -78.4239 345° North 307 353 11,900 -1,320 Descending Cleveland Center
11:08AM 42.4347 -78.4508 346° North 305 351 11,000 -1,020 Descending Cleveland Center
11:09AM 42.5156 -78.4597 355° North 295 339 9,900 -1,500 Descending Cleveland Center
11:10AM 42.6067 -78.4703 355° North 279 321 8,000 -1,620 Descending Cleveland Center
11:11AM 42.6847 -78.4811 354° North 279 321 6,600 -1,020 Descending Cleveland Center
11:12AM 42.7664 -78.4928 354° North 279 321 6,000 -420 Descending Cleveland Center
11:13AM 42.8386 -78.5031 354° North 273 314 5,800 -780 Descending Cleveland Center
11:14AM 42.9147 -78.5128 355° North 266 306 4,500 -1,140 Descending Cleveland Center
11:15AM 42.9842 -78.5219 354° North 261 300 3,500 -720 Descending Cleveland Center
11:16AM 43.0358 -78.5658 328° Northwest 203 234 3,100 -540 Descending Cleveland Center
11:17AM 43.0214 -78.6239 251° West 168 193 2,400 -540 Descending Cleveland Center
11:18AM 43.0000 -78.6500 222° Southwest 160 184 2,200 -540 Descending Buffalo TRACON
11:19AM 42.9667 -78.6833 216° Southwest 137 158 1,500 -720 Descending Buffalo TRACON